sensor_id;sensor_type;location;lat;lon;timestamp;P1;durP1;ratioP1;P2;durP2;ratioP2
77876;SDS011;67251;50.844;7.978;2024-01-30T00:01:09;16.80;;;7.85;;
77876;SDS011;67251;50.844;7.978;2024-01-30T00:03:35;17.38;;;8.07;;
77876;SDS011;67251;50.844;7.978;2024-01-30T00:06:00;17.90;;;7.68;;
77876;SDS011;67251;50.844;7.978;2024-01-30T00:08:28;17.77;;;7.40;;
77876;SDS011;67251;50.844;7.978;2024-01-30T00:10:53;15.57;;;6.80;;
77876;SDS011;67251;50.844;7.978;2024-01-30T00:13:19;19.58;;;8.02;;
77876;SDS011;67251;50.844;7.978;2024-01-30T00:15:45;15.90;;;7.82;;
77876;SDS011;67251;50.844;7.978;2024-01-30T00:18:10;14.70;;;6.88;;
77876;SDS011;67251;50.844;7.978;2024-01-30T00:20:36;15.15;;;7.05;;
77876;SDS011;67251;50.844;7.978;2024-01-30T00:23:01;15.20;;;6.85;;
77876;SDS011;67251;50.844;7.978;2024-01-30T00:25:26;16.95;;;7.45;;
77876;SDS011;67251;50.844;7.978;2024-01-30T00:27:52;17.48;;;7.55;;
77876;SDS011;67251;50.844;7.978;2024-01-30T00:30:17;17.80;;;7.80;;
77876;SDS011;67251;50.844;7.978;2024-01-30T00:32:43;15.80;;;7.55;;
77876;SDS011;67251;50.844;7.978;2024-01-30T00:35:08;16.60;;;7.20;;
77876;SDS011;67251;50.844;7.978;2024-01-30T00:37:35;18.35;;;8.32;;
77876;SDS011;67251;50.844;7.978;2024-01-30T00:40:01;16.48;;;7.18;;
77876;SDS011;67251;50.844;7.978;2024-01-30T00:42:26;16.27;;;7.70;;
77876;SDS011;67251;50.844;7.978;2024-01-30T00:44:52;17.50;;;7.47;;
77876;SDS011;67251;50.844;7.978;2024-01-30T00:47:17;15.55;;;7.55;;
77876;SDS011;67251;50.844;7.978;2024-01-30T00:49:43;16.67;;;6.97;;
77876;SDS011;67251;50.844;7.978;2024-01-30T00:52:08;12.40;;;5.20;;
77876;SDS011;67251;50.844;7.978;2024-01-30T00:54:34;14.90;;;6.82;;
77876;SDS011;67251;50.844;7.978;2024-01-30T00:56:59;13.00;;;5.97;;
77876;SDS011;67251;50.844;7.978;2024-01-30T00:59:24;11.60;;;6.47;;
77876;SDS011;67251;50.844;7.978;2024-01-30T01:01:50;13.27;;;6.72;;
77876;SDS011;67251;50.844;7.978;2024-01-30T01:04:16;12.40;;;6.55;;
77876;SDS011;67251;50.844;7.978;2024-01-30T01:06:42;18.02;;;7.95;;
77876;SDS011;67251;50.844;7.978;2024-01-30T01:09:09;22.15;;;8.35;;
77876;SDS011;67251;50.844;7.978;2024-01-30T01:11:36;17.23;;;8.32;;
77876;SDS011;67251;50.844;7.978;2024-01-30T01:14:03;17.92;;;7.82;;
77876;SDS011;67251;50.844;7.978;2024-01-30T01:16:29;17.58;;;7.63;;
77876;SDS011;67251;50.844;7.978;2024-01-30T01:18:54;14.88;;;6.97;;
77876;SDS011;67251;50.844;7.978;2024-01-30T01:21:20;8.18;;;4.68;;
77876;SDS011;67251;50.844;7.978;2024-01-30T01:23:45;16.08;;;6.93;;
77876;SDS011;67251;50.844;7.978;2024-01-30T01:26:11;12.95;;;5.63;;
77876;SDS011;67251;50.844;7.978;2024-01-30T01:28:36;13.43;;;6.88;;
77876;SDS011;67251;50.844;7.978;2024-01-30T01:31:02;15.65;;;6.53;;
77876;SDS011;67251;50.844;7.978;2024-01-30T01:33:33;17.88;;;7.63;;
77876;SDS011;67251;50.844;7.978;2024-01-30T01:35:58;15.40;;;7.20;;
77876;SDS011;67251;50.844;7.978;2024-01-30T01:38:24;18.10;;;8.05;;
77876;SDS011;67251;50.844;7.978;2024-01-30T01:43:25;15.95;;;6.90;;
77876;SDS011;67251;50.844;7.978;2024-01-30T01:45:50;14.90;;;7.45;;
77876;SDS011;67251;50.844;7.978;2024-01-30T01:48:16;12.65;;;6.65;;
77876;SDS011;67251;50.844;7.978;2024-01-30T01:50:42;17.02;;;7.25;;
77876;SDS011;67251;50.844;7.978;2024-01-30T01:53:08;15.55;;;6.95;;
77876;SDS011;67251;50.844;7.978;2024-01-30T01:55:33;18.45;;;8.32;;
77876;SDS011;67251;50.844;7.978;2024-01-30T01:58:00;20.17;;;8.27;;
77876;SDS011;67251;50.844;7.978;2024-01-30T02:00:26;13.70;;;6.75;;
77876;SDS011;67251;50.844;7.978;2024-01-30T02:02:51;11.20;;;7.30;;
77876;SDS011;67251;50.844;7.978;2024-01-30T02:05:19;17.80;;;8.13;;
77876;SDS011;67251;50.844;7.978;2024-01-30T02:07:45;15.38;;;7.68;;
77876;SDS011;67251;50.844;7.978;2024-01-30T02:10:11;16.73;;;7.75;;
77876;SDS011;67251;50.844;7.978;2024-01-30T02:12:37;14.40;;;6.22;;
77876;SDS011;67251;50.844;7.978;2024-01-30T02:15:02;15.25;;;7.25;;
77876;SDS011;67251;50.844;7.978;2024-01-30T02:17:29;17.50;;;7.57;;
77876;SDS011;67251;50.844;7.978;2024-01-30T02:19:55;22.95;;;7.95;;
77876;SDS011;67251;50.844;7.978;2024-01-30T02:22:20;17.10;;;7.78;;
77876;SDS011;67251;50.844;7.978;2024-01-30T02:24:47;17.10;;;8.23;;
77876;SDS011;67251;50.844;7.978;2024-01-30T02:27:12;15.30;;;7.22;;
77876;SDS011;67251;50.844;7.978;2024-01-30T02:29:38;19.38;;;8.07;;
77876;SDS011;67251;50.844;7.978;2024-01-30T02:32:03;15.48;;;7.20;;
77876;SDS011;67251;50.844;7.978;2024-01-30T02:34:29;20.05;;;8.00;;
77876;SDS011;67251;50.844;7.978;2024-01-30T02:36:54;18.23;;;7.70;;
77876;SDS011;67251;50.844;7.978;2024-01-30T02:39:19;19.98;;;8.07;;
77876;SDS011;67251;50.844;7.978;2024-01-30T02:41:45;13.57;;;6.20;;
77876;SDS011;67251;50.844;7.978;2024-01-30T02:44:10;15.27;;;6.22;;
77876;SDS011;67251;50.844;7.978;2024-01-30T02:46:35;20.25;;;8.35;;
77876;SDS011;67251;50.844;7.978;2024-01-30T02:49:01;19.42;;;7.97;;
77876;SDS011;67251;50.844;7.978;2024-01-30T02:51:26;16.42;;;7.43;;
77876;SDS011;67251;50.844;7.978;2024-01-30T02:53:52;15.23;;;6.97;;
77876;SDS011;67251;50.844;7.978;2024-01-30T02:56:17;16.02;;;7.35;;
77876;SDS011;67251;50.844;7.978;2024-01-30T02:58:43;16.20;;;8.07;;
77876;SDS011;67251;50.844;7.978;2024-01-30T03:01:08;17.60;;;8.15;;
77876;SDS011;67251;50.844;7.978;2024-01-30T03:03:34;19.38;;;7.40;;
77876;SDS011;67251;50.844;7.978;2024-01-30T03:06:00;13.80;;;7.03;;
77876;SDS011;67251;50.844;7.978;2024-01-30T03:08:27;15.57;;;7.10;;
77876;SDS011;67251;50.844;7.978;2024-01-30T03:10:52;17.73;;;7.53;;
77876;SDS011;67251;50.844;7.978;2024-01-30T03:13:17;12.50;;;6.93;;
77876;SDS011;67251;50.844;7.978;2024-01-30T03:15:43;17.27;;;7.10;;
77876;SDS011;67251;50.844;7.978;2024-01-30T03:18:08;15.70;;;6.88;;
77876;SDS011;67251;50.844;7.978;2024-01-30T03:20:33;14.98;;;6.82;;
77876;SDS011;67251;50.844;7.978;2024-01-30T03:22:59;14.18;;;6.93;;
77876;SDS011;67251;50.844;7.978;2024-01-30T03:25:25;14.45;;;6.63;;
77876;SDS011;67251;50.844;7.978;2024-01-30T03:27:51;17.92;;;7.03;;
77876;SDS011;67251;50.844;7.978;2024-01-30T03:30:16;17.77;;;7.03;;
77876;SDS011;67251;50.844;7.978;2024-01-30T03:32:42;17.75;;;7.57;;
77876;SDS011;67251;50.844;7.978;2024-01-30T03:35:08;19.75;;;7.68;;
77876;SDS011;67251;50.844;7.978;2024-01-30T03:37:33;13.90;;;6.68;;
77876;SDS011;67251;50.844;7.978;2024-01-30T03:39:59;18.05;;;6.90;;
77876;SDS011;67251;50.844;7.978;2024-01-30T03:42:24;17.08;;;7.65;;
77876;SDS011;67251;50.844;7.978;2024-01-30T03:44:49;6.15;;;2.70;;
77876;SDS011;67251;50.844;7.978;2024-01-30T03:47:18;13.70;;;6.50;;
77876;SDS011;67251;50.844;7.978;2024-01-30T03:49:44;12.75;;;5.65;;
77876;SDS011;67251;50.844;7.978;2024-01-30T03:52:09;15.73;;;6.60;;
77876;SDS011;67251;50.844;7.978;2024-01-30T03:54:35;14.25;;;6.80;;
77876;SDS011;67251;50.844;7.978;2024-01-30T03:57:00;14.20;;;6.47;;
77876;SDS011;67251;50.844;7.978;2024-01-30T03:59:25;18.02;;;7.55;;
77876;SDS011;67251;50.844;7.978;2024-01-30T04:01:51;17.60;;;7.22;;
77876;SDS011;67251;50.844;7.978;2024-01-30T04:04:17;15.93;;;7.53;;
77876;SDS011;67251;50.844;7.978;2024-01-30T04:06:43;14.25;;;6.28;;
77876;SDS011;67251;50.844;7.978;2024-01-30T04:09:09;14.55;;;7.15;;
77876;SDS011;67251;50.844;7.978;2024-01-30T04:11:34;18.25;;;7.35;;
77876;SDS011;67251;50.844;7.978;2024-01-30T04:14:00;16.00;;;6.80;;
77876;SDS011;67251;50.844;7.978;2024-01-30T04:16:25;18.50;;;7.20;;
77876;SDS011;67251;50.844;7.978;2024-01-30T04:18:51;16.25;;;7.35;;
77876;SDS011;67251;50.844;7.978;2024-01-30T04:21:17;18.30;;;7.50;;
77876;SDS011;67251;50.844;7.978;2024-01-30T04:23:42;16.88;;;7.50;;
77876;SDS011;67251;50.844;7.978;2024-01-30T04:26:08;16.15;;;7.10;;
77876;SDS011;67251;50.844;7.978;2024-01-30T04:28:33;16.70;;;7.18;;
77876;SDS011;67251;50.844;7.978;2024-01-30T04:30:59;14.52;;;6.38;;
77876;SDS011;67251;50.844;7.978;2024-01-30T04:33:24;14.05;;;6.43;;
77876;SDS011;67251;50.844;7.978;2024-01-30T04:35:49;16.63;;;7.65;;
77876;SDS011;67251;50.844;7.978;2024-01-30T04:38:15;19.15;;;7.82;;
77876;SDS011;67251;50.844;7.978;2024-01-30T04:40:40;15.50;;;6.80;;
77876;SDS011;67251;50.844;7.978;2024-01-30T04:43:06;19.52;;;8.32;;
77876;SDS011;67251;50.844;7.978;2024-01-30T04:45:31;20.60;;;8.20;;
77876;SDS011;67251;50.844;7.978;2024-01-30T04:47:56;15.52;;;7.55;;
77876;SDS011;67251;50.844;7.978;2024-01-30T04:50:22;16.88;;;7.55;;
77876;SDS011;67251;50.844;7.978;2024-01-30T04:52:48;28.27;;;10.77;;
77876;SDS011;67251;50.844;7.978;2024-01-30T04:55:14;21.73;;;8.73;;
77876;SDS011;67251;50.844;7.978;2024-01-30T04:57:39;23.60;;;8.80;;
77876;SDS011;67251;50.844;7.978;2024-01-30T05:00:05;18.67;;;7.85;;
77876;SDS011;67251;50.844;7.978;2024-01-30T05:02:31;10.65;;;4.25;;
77876;SDS011;67251;50.844;7.978;2024-01-30T05:04:56;13.73;;;6.47;;
77876;SDS011;67251;50.844;7.978;2024-01-30T05:07:22;17.50;;;7.13;;
77876;SDS011;67251;50.844;7.978;2024-01-30T05:09:49;21.52;;;7.90;;
77876;SDS011;67251;50.844;7.978;2024-01-30T05:12:15;17.38;;;7.80;;
77876;SDS011;67251;50.844;7.978;2024-01-30T05:14:40;21.23;;;6.03;;
77876;SDS011;67251;50.844;7.978;2024-01-30T05:17:05;18.40;;;7.65;;
77876;SDS011;67251;50.844;7.978;2024-01-30T05:19:31;17.60;;;7.40;;
77876;SDS011;67251;50.844;7.978;2024-01-30T05:21:56;14.05;;;6.55;;
77876;SDS011;67251;50.844;7.978;2024-01-30T05:24:21;15.20;;;6.70;;
77876;SDS011;67251;50.844;7.978;2024-01-30T05:26:47;16.15;;;7.13;;
77876;SDS011;67251;50.844;7.978;2024-01-30T05:29:13;16.48;;;7.90;;
77876;SDS011;67251;50.844;7.978;2024-01-30T05:31:38;19.00;;;8.18;;
77876;SDS011;67251;50.844;7.978;2024-01-30T05:34:04;19.10;;;7.38;;
77876;SDS011;67251;50.844;7.978;2024-01-30T05:36:29;19.67;;;7.57;;
77876;SDS011;67251;50.844;7.978;2024-01-30T05:38:55;19.50;;;6.45;;
77876;SDS011;67251;50.844;7.978;2024-01-30T05:41:21;17.45;;;7.43;;
77876;SDS011;67251;50.844;7.978;2024-01-30T05:43:46;15.00;;;6.25;;
77876;SDS011;67251;50.844;7.978;2024-01-30T05:46:12;17.30;;;7.55;;
77876;SDS011;67251;50.844;7.978;2024-01-30T05:48:38;26.95;;;9.70;;
77876;SDS011;67251;50.844;7.978;2024-01-30T05:51:03;31.15;;;10.60;;
77876;SDS011;67251;50.844;7.978;2024-01-30T05:53:29;15.02;;;6.22;;
77876;SDS011;67251;50.844;7.978;2024-01-30T05:55:54;18.02;;;7.75;;
77876;SDS011;67251;50.844;7.978;2024-01-30T05:58:20;17.75;;;6.95;;
77876;SDS011;67251;50.844;7.978;2024-01-30T06:00:46;20.27;;;8.05;;
77876;SDS011;67251;50.844;7.978;2024-01-30T06:03:11;15.27;;;7.35;;
77876;SDS011;67251;50.844;7.978;2024-01-30T06:05:37;13.93;;;6.25;;
77876;SDS011;67251;50.844;7.978;2024-01-30T06:08:02;17.58;;;7.90;;
77876;SDS011;67251;50.844;7.978;2024-01-30T06:10:27;16.92;;;7.00;;
77876;SDS011;67251;50.844;7.978;2024-01-30T06:12:53;15.60;;;6.47;;
77876;SDS011;67251;50.844;7.978;2024-01-30T06:15:18;16.00;;;7.22;;
77876;SDS011;67251;50.844;7.978;2024-01-30T06:17:44;20.38;;;8.35;;
77876;SDS011;67251;50.844;7.978;2024-01-30T06:20:09;14.52;;;6.57;;
77876;SDS011;67251;50.844;7.978;2024-01-30T06:22:35;22.42;;;6.28;;
77876;SDS011;67251;50.844;7.978;2024-01-30T06:25:00;13.88;;;6.25;;
77876;SDS011;67251;50.844;7.978;2024-01-30T06:27:26;10.07;;;3.50;;
77876;SDS011;67251;50.844;7.978;2024-01-30T06:29:51;21.38;;;7.82;;
77876;SDS011;67251;50.844;7.978;2024-01-30T06:32:16;15.18;;;7.03;;
77876;SDS011;67251;50.844;7.978;2024-01-30T06:34:42;17.42;;;7.63;;
77876;SDS011;67251;50.844;7.978;2024-01-30T06:37:09;19.27;;;7.97;;
77876;SDS011;67251;50.844;7.978;2024-01-30T06:39:34;20.83;;;6.88;;
77876;SDS011;67251;50.844;7.978;2024-01-30T06:42:00;17.65;;;7.43;;
77876;SDS011;67251;50.844;7.978;2024-01-30T06:44:25;22.45;;;8.27;;
77876;SDS011;67251;50.844;7.978;2024-01-30T06:46:50;19.10;;;9.10;;
77876;SDS011;67251;50.844;7.978;2024-01-30T06:49:16;25.60;;;7.57;;
77876;SDS011;67251;50.844;7.978;2024-01-30T06:51:41;20.05;;;7.82;;
77876;SDS011;67251;50.844;7.978;2024-01-30T06:54:07;20.45;;;8.20;;
77876;SDS011;67251;50.844;7.978;2024-01-30T06:56:32;17.83;;;7.85;;
77876;SDS011;67251;50.844;7.978;2024-01-30T06:58:57;19.33;;;8.38;;
77876;SDS011;67251;50.844;7.978;2024-01-30T07:01:28;16.65;;;7.68;;
77876;SDS011;67251;50.844;7.978;2024-01-30T07:03:54;18.35;;;7.85;;
77876;SDS011;67251;50.844;7.978;2024-01-30T07:06:20;19.00;;;7.40;;
77876;SDS011;67251;50.844;7.978;2024-01-30T07:08:45;17.55;;;7.45;;
77876;SDS011;67251;50.844;7.978;2024-01-30T07:11:11;16.38;;;6.80;;
77876;SDS011;67251;50.844;7.978;2024-01-30T07:13:47;15.85;;;7.20;;
77876;SDS011;67251;50.844;7.978;2024-01-30T07:16:13;14.88;;;6.40;;
77876;SDS011;67251;50.844;7.978;2024-01-30T07:18:38;21.95;;;7.30;;
77876;SDS011;67251;50.844;7.978;2024-01-30T07:21:04;16.10;;;7.00;;
77876;SDS011;67251;50.844;7.978;2024-01-30T07:23:29;19.63;;;8.95;;
77876;SDS011;67251;50.844;7.978;2024-01-30T07:25:55;25.75;;;10.15;;
77876;SDS011;67251;50.844;7.978;2024-01-30T07:28:20;25.83;;;8.95;;
77876;SDS011;67251;50.844;7.978;2024-01-30T07:30:46;18.50;;;7.43;;
77876;SDS011;67251;50.844;7.978;2024-01-30T07:33:12;17.33;;;8.23;;
77876;SDS011;67251;50.844;7.978;2024-01-30T07:35:37;17.10;;;6.95;;
77876;SDS011;67251;50.844;7.978;2024-01-30T07:38:03;12.27;;;5.90;;
77876;SDS011;67251;50.844;7.978;2024-01-30T07:40:28;16.63;;;8.18;;
77876;SDS011;67251;50.844;7.978;2024-01-30T07:42:54;16.92;;;7.30;;
77876;SDS011;67251;50.844;7.978;2024-01-30T07:45:20;13.68;;;6.80;;
77876;SDS011;67251;50.844;7.978;2024-01-30T07:47:49;16.13;;;7.30;;
77876;SDS011;67251;50.844;7.978;2024-01-30T07:50:15;17.27;;;7.60;;
77876;SDS011;67251;50.844;7.978;2024-01-30T07:52:41;16.58;;;6.90;;
77876;SDS011;67251;50.844;7.978;2024-01-30T07:55:07;16.27;;;7.00;;
77876;SDS011;67251;50.844;7.978;2024-01-30T07:57:33;17.58;;;8.43;;
77876;SDS011;67251;50.844;7.978;2024-01-30T07:59:59;20.48;;;7.65;;
77876;SDS011;67251;50.844;7.978;2024-01-30T08:02:25;16.33;;;7.13;;
77876;SDS011;67251;50.844;7.978;2024-01-30T08:04:50;21.58;;;9.15;;
77876;SDS011;67251;50.844;7.978;2024-01-30T08:07:16;27.70;;;9.25;;
77876;SDS011;67251;50.844;7.978;2024-01-30T08:09:42;18.88;;;8.60;;
77876;SDS011;67251;50.844;7.978;2024-01-30T08:12:08;16.45;;;7.47;;
77876;SDS011;67251;50.844;7.978;2024-01-30T08:14:33;21.08;;;8.55;;
77876;SDS011;67251;50.844;7.978;2024-01-30T08:16:59;21.60;;;8.70;;
77876;SDS011;67251;50.844;7.978;2024-01-30T08:19:24;22.63;;;9.45;;
77876;SDS011;67251;50.844;7.978;2024-01-30T08:21:49;20.65;;;7.88;;
77876;SDS011;67251;50.844;7.978;2024-01-30T08:24:15;16.88;;;8.13;;
77876;SDS011;67251;50.844;7.978;2024-01-30T08:26:40;20.83;;;8.43;;
77876;SDS011;67251;50.844;7.978;2024-01-30T08:29:06;19.05;;;8.60;;
77876;SDS011;67251;50.844;7.978;2024-01-30T08:31:32;16.08;;;7.20;;
77876;SDS011;67251;50.844;7.978;2024-01-30T08:33:57;11.73;;;5.25;;
77876;SDS011;67251;50.844;7.978;2024-01-30T08:36:23;26.17;;;10.02;;
77876;SDS011;67251;50.844;7.978;2024-01-30T08:38:49;22.40;;;9.75;;
77876;SDS011;67251;50.844;7.978;2024-01-30T08:41:14;20.40;;;9.25;;
77876;SDS011;67251;50.844;7.978;2024-01-30T08:43:39;21.45;;;9.55;;
77876;SDS011;67251;50.844;7.978;2024-01-30T08:46:05;18.10;;;7.78;;
77876;SDS011;67251;50.844;7.978;2024-01-30T08:48:30;19.00;;;8.07;;
77876;SDS011;67251;50.844;7.978;2024-01-30T08:50:55;19.25;;;8.40;;
77876;SDS011;67251;50.844;7.978;2024-01-30T08:53:21;27.42;;;10.20;;
77876;SDS011;67251;50.844;7.978;2024-01-30T08:55:47;5.53;;;2.53;;
77876;SDS011;67251;50.844;7.978;2024-01-30T08:58:12;23.73;;;10.80;;
77876;SDS011;67251;50.844;7.978;2024-01-30T09:00:37;18.75;;;7.95;;
77876;SDS011;67251;50.844;7.978;2024-01-30T09:03:03;17.73;;;8.82;;
77876;SDS011;67251;50.844;7.978;2024-01-30T09:05:28;21.77;;;9.82;;
77876;SDS011;67251;50.844;7.978;2024-01-30T09:07:54;16.00;;;6.93;;
77876;SDS011;67251;50.844;7.978;2024-01-30T09:10:19;12.40;;;5.82;;
77876;SDS011;67251;50.844;7.978;2024-01-30T09:12:45;20.27;;;9.38;;
77876;SDS011;67251;50.844;7.978;2024-01-30T09:15:11;18.60;;;8.73;;
77876;SDS011;67251;50.844;7.978;2024-01-30T09:17:36;16.90;;;8.10;;
77876;SDS011;67251;50.844;7.978;2024-01-30T09:20:02;22.35;;;8.38;;
77876;SDS011;67251;50.844;7.978;2024-01-30T09:22:28;19.10;;;8.93;;
77876;SDS011;67251;50.844;7.978;2024-01-30T09:24:53;19.58;;;9.60;;
77876;SDS011;67251;50.844;7.978;2024-01-30T09:27:18;19.20;;;8.63;;
77876;SDS011;67251;50.844;7.978;2024-01-30T09:29:44;18.33;;;7.65;;
77876;SDS011;67251;50.844;7.978;2024-01-30T09:32:09;22.15;;;9.82;;
77876;SDS011;67251;50.844;7.978;2024-01-30T09:34:34;21.50;;;8.68;;
77876;SDS011;67251;50.844;7.978;2024-01-30T09:37:00;21.60;;;9.30;;
77876;SDS011;67251;50.844;7.978;2024-01-30T09:39:25;18.40;;;9.07;;
77876;SDS011;67251;50.844;7.978;2024-01-30T09:41:55;19.92;;;9.45;;
77876;SDS011;67251;50.844;7.978;2024-01-30T09:46:54;18.98;;;7.70;;
77876;SDS011;67251;50.844;7.978;2024-01-30T09:49:20;17.00;;;8.23;;
77876;SDS011;67251;50.844;7.978;2024-01-30T09:51:49;20.48;;;9.00;;
77876;SDS011;67251;50.844;7.978;2024-01-30T09:54:15;20.42;;;9.35;;
77876;SDS011;67251;50.844;7.978;2024-01-30T09:56:41;17.45;;;8.35;;
77876;SDS011;67251;50.844;7.978;2024-01-30T09:59:07;19.98;;;9.80;;
77876;SDS011;67251;50.844;7.978;2024-01-30T10:01:33;10.20;;;5.22;;
77876;SDS011;67251;50.844;7.978;2024-01-30T10:04:00;24.30;;;9.50;;
77876;SDS011;67251;50.844;7.978;2024-01-30T10:06:27;22.65;;;9.40;;
77876;SDS011;67251;50.844;7.978;2024-01-30T10:08:53;18.83;;;9.90;;
77876;SDS011;67251;50.844;7.978;2024-01-30T10:11:18;18.25;;;9.23;;
77876;SDS011;67251;50.844;7.978;2024-01-30T10:13:43;20.95;;;10.27;;
77876;SDS011;67251;50.844;7.978;2024-01-30T10:16:09;27.30;;;11.15;;
77876;SDS011;67251;50.844;7.978;2024-01-30T10:18:34;18.40;;;9.25;;
77876;SDS011;67251;50.844;7.978;2024-01-30T10:20:59;20.85;;;8.73;;
77876;SDS011;67251;50.844;7.978;2024-01-30T10:23:25;14.23;;;6.53;;
77876;SDS011;67251;50.844;7.978;2024-01-30T10:25:51;13.88;;;6.38;;
77876;SDS011;67251;50.844;7.978;2024-01-30T10:28:16;17.63;;;9.18;;
77876;SDS011;67251;50.844;7.978;2024-01-30T10:30:42;21.27;;;8.52;;
77876;SDS011;67251;50.844;7.978;2024-01-30T10:33:07;23.13;;;10.30;;
77876;SDS011;67251;50.844;7.978;2024-01-30T10:35:33;17.10;;;8.75;;
77876;SDS011;67251;50.844;7.978;2024-01-30T10:37:58;20.30;;;9.57;;
77876;SDS011;67251;50.844;7.978;2024-01-30T10:40:27;18.42;;;9.82;;
77876;SDS011;67251;50.844;7.978;2024-01-30T10:42:53;24.27;;;9.75;;
77876;SDS011;67251;50.844;7.978;2024-01-30T10:45:21;21.63;;;10.55;;
77876;SDS011;67251;50.844;7.978;2024-01-30T10:47:50;20.20;;;10.30;;
77876;SDS011;67251;50.844;7.978;2024-01-30T10:50:18;25.30;;;11.45;;
77876;SDS011;67251;50.844;7.978;2024-01-30T10:52:45;23.73;;;11.88;;
77876;SDS011;67251;50.844;7.978;2024-01-30T10:55:11;20.67;;;11.48;;
77876;SDS011;67251;50.844;7.978;2024-01-30T10:57:38;19.95;;;10.32;;
77876;SDS011;67251;50.844;7.978;2024-01-30T11:00:10;24.67;;;11.45;;
77876;SDS011;67251;50.844;7.978;2024-01-30T11:02:42;21.88;;;10.73;;
77876;SDS011;67251;50.844;7.978;2024-01-30T11:05:09;20.42;;;9.90;;
77876;SDS011;67251;50.844;7.978;2024-01-30T11:07:35;23.23;;;10.75;;
77876;SDS011;67251;50.844;7.978;2024-01-30T11:10:02;19.13;;;10.73;;
77876;SDS011;67251;50.844;7.978;2024-01-30T11:12:29;22.33;;;9.88;;
77876;SDS011;67251;50.844;7.978;2024-01-30T11:15:02;19.75;;;10.38;;
77876;SDS011;67251;50.844;7.978;2024-01-30T11:17:39;21.90;;;10.85;;
77876;SDS011;67251;50.844;7.978;2024-01-30T11:20:11;22.48;;;11.60;;
77876;SDS011;67251;50.844;7.978;2024-01-30T11:22:41;23.05;;;11.18;;
77876;SDS011;67251;50.844;7.978;2024-01-30T11:25:10;20.45;;;11.07;;
77876;SDS011;67251;50.844;7.978;2024-01-30T11:27:36;24.55;;;12.65;;
77876;SDS011;67251;50.844;7.978;2024-01-30T11:30:03;21.15;;;11.57;;
77876;SDS011;67251;50.844;7.978;2024-01-30T11:32:30;23.48;;;11.52;;
77876;SDS011;67251;50.844;7.978;2024-01-30T11:34:55;22.40;;;10.95;;
77876;SDS011;67251;50.844;7.978;2024-01-30T11:37:21;24.10;;;11.45;;
77876;SDS011;67251;50.844;7.978;2024-01-30T11:39:53;22.00;;;10.63;;
77876;SDS011;67251;50.844;7.978;2024-01-30T11:42:19;25.20;;;11.13;;
77876;SDS011;67251;50.844;7.978;2024-01-30T11:44:48;24.23;;;10.65;;
77876;SDS011;67251;50.844;7.978;2024-01-30T11:47:14;21.73;;;10.30;;
77876;SDS011;67251;50.844;7.978;2024-01-30T11:49:39;25.05;;;11.07;;
77876;SDS011;67251;50.844;7.978;2024-01-30T11:52:05;26.85;;;11.45;;
77876;SDS011;67251;50.844;7.978;2024-01-30T11:54:30;22.52;;;11.05;;
77876;SDS011;67251;50.844;7.978;2024-01-30T11:56:56;23.40;;;11.38;;
77876;SDS011;67251;50.844;7.978;2024-01-30T11:59:22;22.38;;;11.70;;
77876;SDS011;67251;50.844;7.978;2024-01-30T12:01:47;23.35;;;10.90;;
77876;SDS011;67251;50.844;7.978;2024-01-30T12:04:13;21.50;;;10.73;;
77876;SDS011;67251;50.844;7.978;2024-01-30T12:06:38;21.05;;;10.30;;
77876;SDS011;67251;50.844;7.978;2024-01-30T12:09:04;22.20;;;10.85;;
77876;SDS011;67251;50.844;7.978;2024-01-30T12:11:31;25.58;;;10.90;;
77876;SDS011;67251;50.844;7.978;2024-01-30T12:13:56;27.15;;;11.25;;
77876;SDS011;67251;50.844;7.978;2024-01-30T12:16:22;23.20;;;10.95;;
77876;SDS011;67251;50.844;7.978;2024-01-30T12:18:48;34.85;;;13.18;;
77876;SDS011;67251;50.844;7.978;2024-01-30T12:21:16;22.48;;;10.77;;
77876;SDS011;67251;50.844;7.978;2024-01-30T12:23:41;23.90;;;11.55;;
77876;SDS011;67251;50.844;7.978;2024-01-30T12:26:07;21.73;;;11.55;;
77876;SDS011;67251;50.844;7.978;2024-01-30T12:28:33;23.67;;;10.52;;
77876;SDS011;67251;50.844;7.978;2024-01-30T12:31:02;24.13;;;11.50;;
77876;SDS011;67251;50.844;7.978;2024-01-30T12:33:28;22.15;;;11.45;;
77876;SDS011;67251;50.844;7.978;2024-01-30T12:35:54;25.60;;;12.70;;
77876;SDS011;67251;50.844;7.978;2024-01-30T12:38:21;23.30;;;11.98;;
77876;SDS011;67251;50.844;7.978;2024-01-30T12:40:46;24.58;;;11.88;;
77876;SDS011;67251;50.844;7.978;2024-01-30T12:43:13;27.40;;;11.27;;
77876;SDS011;67251;50.844;7.978;2024-01-30T12:45:38;23.38;;;11.40;;
77876;SDS011;67251;50.844;7.978;2024-01-30T12:48:04;25.35;;;11.55;;
77876;SDS011;67251;50.844;7.978;2024-01-30T12:50:30;23.10;;;11.32;;
77876;SDS011;67251;50.844;7.978;2024-01-30T12:52:55;24.52;;;12.82;;
77876;SDS011;67251;50.844;7.978;2024-01-30T12:55:21;24.10;;;12.32;;
77876;SDS011;67251;50.844;7.978;2024-01-30T12:57:46;25.52;;;11.63;;
77876;SDS011;67251;50.844;7.978;2024-01-30T13:00:11;23.20;;;11.40;;
77876;SDS011;67251;50.844;7.978;2024-01-30T13:02:37;26.10;;;12.27;;
77876;SDS011;67251;50.844;7.978;2024-01-30T13:05:03;23.13;;;12.25;;
77876;SDS011;67251;50.844;7.978;2024-01-30T13:07:29;24.40;;;12.45;;
77876;SDS011;67251;50.844;7.978;2024-01-30T13:09:55;28.05;;;13.20;;
77876;SDS011;67251;50.844;7.978;2024-01-30T13:12:21;19.50;;;11.10;;
77876;SDS011;67251;50.844;7.978;2024-01-30T13:14:47;25.33;;;12.20;;
77876;SDS011;67251;50.844;7.978;2024-01-30T13:17:12;27.88;;;12.10;;
77876;SDS011;67251;50.844;7.978;2024-01-30T13:19:38;27.55;;;13.25;;
77876;SDS011;67251;50.844;7.978;2024-01-30T13:22:03;30.70;;;13.07;;
77876;SDS011;67251;50.844;7.978;2024-01-30T13:24:28;29.98;;;14.23;;
77876;SDS011;67251;50.844;7.978;2024-01-30T13:26:54;30.67;;;13.68;;
77876;SDS011;67251;50.844;7.978;2024-01-30T13:29:19;29.40;;;13.45;;
77876;SDS011;67251;50.844;7.978;2024-01-30T13:31:45;22.63;;;12.27;;
77876;SDS011;67251;50.844;7.978;2024-01-30T13:34:12;28.45;;;12.57;;
77876;SDS011;67251;50.844;7.978;2024-01-30T13:36:38;24.80;;;12.23;;
77876;SDS011;67251;50.844;7.978;2024-01-30T13:39:04;27.30;;;13.55;;
77876;SDS011;67251;50.844;7.978;2024-01-30T13:41:33;25.70;;;13.45;;
77876;SDS011;67251;50.844;7.978;2024-01-30T13:43:58;26.33;;;12.80;;
77876;SDS011;67251;50.844;7.978;2024-01-30T13:46:23;24.40;;;11.93;;
77876;SDS011;67251;50.844;7.978;2024-01-30T13:48:50;22.25;;;11.95;;
77876;SDS011;67251;50.844;7.978;2024-01-30T13:51:15;28.17;;;13.13;;
77876;SDS011;67251;50.844;7.978;2024-01-30T13:53:42;29.25;;;13.48;;
77876;SDS011;67251;50.844;7.978;2024-01-30T13:56:07;25.08;;;13.23;;
77876;SDS011;67251;50.844;7.978;2024-01-30T13:58:33;24.35;;;12.35;;
77876;SDS011;67251;50.844;7.978;2024-01-30T14:00:59;28.73;;;13.70;;
77876;SDS011;67251;50.844;7.978;2024-01-30T14:03:25;25.17;;;12.77;;
77876;SDS011;67251;50.844;7.978;2024-01-30T14:05:50;26.45;;;12.23;;
77876;SDS011;67251;50.844;7.978;2024-01-30T14:08:15;27.45;;;11.82;;
77876;SDS011;67251;50.844;7.978;2024-01-30T14:10:41;25.80;;;13.50;;
77876;SDS011;67251;50.844;7.978;2024-01-30T14:13:06;26.23;;;12.70;;
77876;SDS011;67251;50.844;7.978;2024-01-30T14:15:32;22.10;;;11.52;;
77876;SDS011;67251;50.844;7.978;2024-01-30T14:17:57;27.85;;;12.80;;
77876;SDS011;67251;50.844;7.978;2024-01-30T14:20:22;30.33;;;12.48;;
77876;SDS011;67251;50.844;7.978;2024-01-30T14:22:48;27.27;;;12.88;;
77876;SDS011;67251;50.844;7.978;2024-01-30T14:25:13;26.92;;;12.30;;
77876;SDS011;67251;50.844;7.978;2024-01-30T14:27:39;23.83;;;12.10;;